createdAt,value
2019-01-06T00:00:40.633Z,2.90
2019-01-06T00:03:24.120Z,3.17
2019-01-06T00:06:20.309Z,2.27
2019-01-06T00:09:22.720Z,2.00
2019-01-06T00:12:19.148Z,2.00
2019-01-06T00:15:09.261Z,1.10
2019-01-06T00:17:53.284Z,0.90
2019-01-06T00:20:58.668Z,0.63
2019-01-06T00:23:45.005Z,0.67
2019-01-06T00:26:44.347Z,0.67
2019-01-06T00:29:38.841Z,0.60
2019-01-06T00:32:25.041Z,0.60
2019-01-06T00:35:30.409Z,0.70
2019-01-06T00:38:16.776Z,0.90
2019-01-06T00:41:19.210Z,0.60
2019-01-06T00:44:05.143Z,0.60
2019-01-06T00:46:58.244Z,0.70
2019-01-06T00:49:48.640Z,0.70
2019-01-06T00:52:44.745Z,0.60
2019-01-06T00:55:41.668Z,0.50
2019-01-06T00:58:27.779Z,0.73
2019-01-06T01:01:13.696Z,0.80
2019-01-06T01:04:09.838Z,0.57
2019-01-06T01:06:56.052Z,0.70
2019-01-06T01:09:48.547Z,0.80
2019-01-06T01:12:41.644Z,0.90
2019-01-06T01:15:27.754Z,0.73
2019-01-06T01:18:14.406Z,0.70
2019-01-06T01:20:50.285Z,0.50
2019-01-06T01:23:36.474Z,0.63
2019-01-06T01:26:22.489Z,0.80
2019-01-06T01:29:08.496Z,0.60
2019-01-06T01:31:58.580Z,0.90
2019-01-06T01:34:53.201Z,0.50
2019-01-06T01:37:40.641Z,0.80
2019-01-06T01:40:30.316Z,0.70
2019-01-06T01:43:16.469Z,1.03
2019-01-06T01:46:02.321Z,0.70
2019-01-06T01:48:47.946Z,0.70
2019-01-06T01:51:35.377Z,0.77
2019-01-06T01:54:35.089Z,0.80
2019-01-06T01:57:34.496Z,0.70
2019-01-06T02:00:20.370Z,0.70
2019-01-06T02:03:13.757Z,0.77
2019-01-06T02:05:59.949Z,0.90
2019-01-06T02:08:50.692Z,0.90
2019-01-06T02:11:36.901Z,0.77
2019-01-06T02:14:23.731Z,0.70
2019-01-06T02:17:29.305Z,0.90
2019-01-06T02:20:25.666Z,0.67
2019-01-06T02:23:25.265Z,0.70
2019-01-06T02:26:12.812Z,0.70
2019-01-06T02:29:05.856Z,0.87
2019-01-06T02:31:59.413Z,0.60
2019-01-06T02:34:46.131Z,0.43
2019-01-06T02:37:28.731Z,0.70
2019-01-06T02:40:14.882Z,0.73
2019-01-06T02:43:00.831Z,0.77
2019-01-06T02:45:45.980Z,0.70
2019-01-06T02:48:39.473Z,0.70
2019-01-06T02:51:25.321Z,0.70
2019-01-06T02:54:12.826Z,0.67
2019-01-06T02:57:12.361Z,0.70
2019-01-06T03:00:08.897Z,0.70
2019-01-06T03:02:55.204Z,0.70
2019-01-06T03:05:48.377Z,0.50
2019-01-06T03:08:35.840Z,0.50
2019-01-06T03:11:38.679Z,0.47
2019-01-06T03:14:35.040Z,0.50
2019-01-06T03:17:21.065Z,0.50
2019-01-06T03:20:08.516Z,0.50
2019-01-06T03:22:54.613Z,0.60
2019-01-06T03:25:42.060Z,0.40
2019-01-06T03:28:29.560Z,0.50
2019-01-06T03:31:17.078Z,0.50
2019-01-06T03:34:11.312Z,0.50
2019-01-06T03:36:53.516Z,0.40
2019-01-06T03:39:44.022Z,0.50
2019-01-06T03:42:30.614Z,0.40
2019-01-06T03:45:18.114Z,0.40
2019-01-06T03:48:08.545Z,0.40
2019-01-06T03:50:54.414Z,0.80
2019-01-06T03:53:47.748Z,0.53
2019-01-06T03:56:34.097Z,0.40
2019-01-06T03:59:27.266Z,0.40
2019-01-06T04:02:20.764Z,0.53
2019-01-06T04:05:08.269Z,0.70
2019-01-06T04:08:10.922Z,0.53
2019-01-06T04:10:57.166Z,0.50
2019-01-06T04:13:44.623Z,0.57
2019-01-06T04:16:37.804Z,0.60
2019-01-06T04:19:23.892Z,0.50
2019-01-06T04:22:20.125Z,0.70
2019-01-06T04:25:10.468Z,0.80
2019-01-06T04:28:07.011Z,0.70
2019-01-06T04:30:54.496Z,0.50
2019-01-06T04:33:40.730Z,0.70
2019-01-06T04:36:46.229Z,0.40
2019-01-06T04:39:33.096Z,0.73
2019-01-06T04:42:20.607Z,0.53
2019-01-06T04:45:23.282Z,0.60
2019-01-06T04:48:10.772Z,0.50
2019-01-06T04:50:58.316Z,0.70
2019-01-06T04:53:44.203Z,0.60
2019-01-06T04:56:42.026Z,0.40
2019-01-06T04:59:28.249Z,0.50
2019-01-06T05:02:14.217Z,0.60
2019-01-06T05:05:13.586Z,0.50
2019-01-06T05:08:07.173Z,0.53
2019-01-06T05:11:01.093Z,0.57
2019-01-06T05:13:46.636Z,0.47
2019-01-06T05:16:36.909Z,0.63
2019-01-06T05:19:42.682Z,0.60
2019-01-06T05:22:35.970Z,0.47
2019-01-06T05:25:38.805Z,0.60
2019-01-06T05:28:26.258Z,0.47
2019-01-06T05:31:28.719Z,0.40
2019-01-06T05:34:19.545Z,0.50
2019-01-06T05:37:05.551Z,0.40
2019-01-06T05:39:51.417Z,0.40
2019-01-06T05:42:44.618Z,0.43
2019-01-06T05:45:40.747Z,0.40
2019-01-06T05:48:30.981Z,0.47
2019-01-06T05:51:27.272Z,0.30
2019-01-06T05:54:19.626Z,0.50
2019-01-06T05:57:09.719Z,0.57
2019-01-06T06:00:09.373Z,0.60
2019-01-06T06:02:59.885Z,0.50
2019-01-06T06:05:53.092Z,0.40
2019-01-06T06:08:46.512Z,0.50
2019-01-06T06:11:49.869Z,0.40
2019-01-06T06:14:46.274Z,0.50
2019-01-06T06:17:51.882Z,0.40
2019-01-06T06:20:45.310Z,0.40
2019-01-06T06:23:31.166Z,0.30
2019-01-06T06:26:17.237Z,0.40
2019-01-06T06:29:22.744Z,0.40
2019-01-06T06:32:28.416Z,0.40
2019-01-06T06:35:18.834Z,0.37
2019-01-06T06:38:11.280Z,0.40
2019-01-06T06:41:10.937Z,0.53
2019-01-06T06:44:10.592Z,0.53
2019-01-06T06:46:56.829Z,0.40
2019-01-06T06:49:59.222Z,0.33
2019-01-06T06:52:49.617Z,0.50
2019-01-06T06:55:49.305Z,0.50
2019-01-06T06:58:39.864Z,0.50
2019-01-06T07:02:09.937Z,0.57
2019-01-06T07:05:00.293Z,0.40
2019-01-06T07:07:46.592Z,0.40
2019-01-06T07:10:32.681Z,0.40
2019-01-06T07:13:18.670Z,0.50
2019-01-06T07:16:08.890Z,0.57
2019-01-06T07:18:55.342Z,0.50
2019-01-06T07:21:51.034Z,0.50
2019-01-06T07:24:37.405Z,0.40
2019-01-06T07:27:42.854Z,0.50
2019-01-06T07:30:31.288Z,0.40
2019-01-06T07:33:07.657Z,0.60
2019-01-06T07:36:05.891Z,0.60
2019-01-06T07:38:53.729Z,0.80
2019-01-06T07:41:37.432Z,1.90
2019-01-06T07:44:22.409Z,0.50
2019-01-06T07:47:08.536Z,0.43
2019-01-06T07:50:07.892Z,0.40
2019-01-06T07:52:55.341Z,0.50
2019-01-06T07:55:41.596Z,0.50
2019-01-06T07:58:27.685Z,0.60
2019-01-06T08:01:15.172Z,0.73
2019-01-06T08:04:14.608Z,0.47
2019-01-06T08:07:14.028Z,0.50
2019-01-06T08:10:10.246Z,0.60
2019-01-06T08:12:57.719Z,0.60
2019-01-06T08:15:53.953Z,0.50
2019-01-06T08:18:50.568Z,0.50
2019-01-06T08:21:47.227Z,0.53
2019-01-06T08:24:37.520Z,0.60
2019-01-06T08:27:31.493Z,0.70
2019-01-06T08:30:17.585Z,0.47
2019-01-06T08:33:05.129Z,0.50
2019-01-06T08:36:01.680Z,0.63
2019-01-06T08:38:47.553Z,0.90
2019-01-06T08:41:37.644Z,0.70
2019-01-06T08:44:34.099Z,0.40
2019-01-06T08:47:21.537Z,0.70
2019-01-06T08:50:27.248Z,0.53
2019-01-06T08:53:13.051Z,0.40
2019-01-06T08:56:06.630Z,0.53
2019-01-06T08:58:46.642Z,0.40
2019-01-06T09:01:32.936Z,0.60
2019-01-06T09:04:18.764Z,0.50
2019-01-06T09:07:14.953Z,0.50
2019-01-06T09:10:01.351Z,0.50
2019-01-06T09:12:47.420Z,0.63
2019-01-06T09:15:37.918Z,0.60
2019-01-06T09:18:23.928Z,0.50
2019-01-06T09:21:15.701Z,0.50
2019-01-06T09:24:01.602Z,0.60
2019-01-06T09:26:47.842Z,0.40
2019-01-06T09:29:35.285Z,0.70
2019-01-06T09:32:21.189Z,0.37
2019-01-06T09:35:20.202Z,0.70
2019-01-06T09:38:17.905Z,0.70
2019-01-06T09:41:04.283Z,0.70
2019-01-06T09:44:03.898Z,0.60
2019-01-06T09:47:09.486Z,0.70
2019-01-06T09:49:56.177Z,0.70
2019-01-06T09:52:49.681Z,0.70
2019-01-06T09:55:36.009Z,0.50
2019-01-06T09:58:35.518Z,0.83
2019-01-06T10:01:32.336Z,0.83
2019-01-06T10:04:18.723Z,0.93
2019-01-06T10:07:05.069Z,0.90
2019-01-06T10:09:50.692Z,0.70
2019-01-06T10:12:34.557Z,0.80
2019-01-06T10:15:21.164Z,2.37
2019-01-06T10:18:17.581Z,2.50
2019-01-06T10:21:17.074Z,2.50
2019-01-06T10:24:09.377Z,1.40
2019-01-06T10:27:04.210Z,2.53
2019-01-06T10:29:50.368Z,1.20
2019-01-06T10:32:46.773Z,1.00
2019-01-06T10:35:32.977Z,0.70
2019-01-06T10:38:18.828Z,1.37
2019-01-06T10:41:21.749Z,0.90
2019-01-06T10:44:18.084Z,0.50
2019-01-06T10:47:04.016Z,0.60
2019-01-06T10:49:54.730Z,0.73
2019-01-06T10:52:40.833Z,0.70
2019-01-06T10:55:26.837Z,0.80
2019-01-06T10:58:20.230Z,0.87
2019-01-06T11:01:10.676Z,1.03
2019-01-06T11:03:56.588Z,0.70
2019-01-06T11:06:44.113Z,1.00
2019-01-06T11:09:34.800Z,0.90
2019-01-06T11:12:21.344Z,0.57
2019-01-06T11:15:05.359Z,0.83
2019-01-06T11:18:02.386Z,0.97
2019-01-06T11:20:46.320Z,0.60
2019-01-06T11:23:48.997Z,0.70
2019-01-06T11:26:39.509Z,0.70
2019-01-06T11:29:32.977Z,1.00
2019-01-06T11:32:20.703Z,0.80
2019-01-06T11:35:08.241Z,0.87
2019-01-06T11:37:54.473Z,1.30
2019-01-06T11:40:40.445Z,0.83
2019-01-06T11:43:28.453Z,0.70
2019-01-06T11:46:14.346Z,0.90
2019-01-06T11:49:00.606Z,0.80
2019-01-06T11:52:06.133Z,0.80
2019-01-06T11:55:04.334Z,0.97
2019-01-06T11:57:50.312Z,1.17
2019-01-06T12:00:37.468Z,1.40
2019-01-06T12:03:27.927Z,1.33
2019-01-06T12:06:27.586Z,1.00
2019-01-06T12:09:13.856Z,0.70
2019-01-06T12:12:00.129Z,0.93
2019-01-06T12:14:47.772Z,0.90
2019-01-06T12:17:41.100Z,0.73
2019-01-06T12:20:27.400Z,0.80
2019-01-06T12:23:17.485Z,1.00
2019-01-06T12:26:03.616Z,1.17
2019-01-06T12:28:49.816Z,1.00
2019-01-06T12:31:43.224Z,0.97
2019-01-06T12:34:36.773Z,1.03
2019-01-06T12:37:33.393Z,1.10
2019-01-06T12:40:19.479Z,1.00
2019-01-06T12:43:12.998Z,0.70
2019-01-06T12:45:59.313Z,0.80
2019-01-06T12:48:45.705Z,0.97
2019-01-06T12:51:43.670Z,0.80
2019-01-06T12:54:28.901Z,1.20
2019-01-06T12:57:16.505Z,1.10
2019-01-06T13:00:19.129Z,1.00
2019-01-06T13:03:05.336Z,0.90
2019-01-06T13:06:03.419Z,1.00
2019-01-06T13:08:57.482Z,0.90
2019-01-06T13:11:44.846Z,0.90
2019-01-06T13:14:31.108Z,1.00
2019-01-06T13:17:30.552Z,1.00
2019-01-06T13:20:16.753Z,0.90
2019-01-06T13:23:13.019Z,0.80
2019-01-06T13:25:59.292Z,1.10
2019-01-06T13:28:45.388Z,0.90
2019-01-06T13:31:33.012Z,1.10
2019-01-06T13:34:19.441Z,1.10
2019-01-06T13:37:05.313Z,0.87
2019-01-06T13:39:52.844Z,1.00
2019-01-06T13:42:40.406Z,1.10
2019-01-06T13:45:31.517Z,1.10
2019-01-06T13:48:28.215Z,0.70
2019-01-06T13:51:16.200Z,1.00
2019-01-06T13:54:03.685Z,0.90
2019-01-06T13:56:50.520Z,1.43
2019-01-06T13:59:40.976Z,1.10
2019-01-06T14:02:34.500Z,1.10
2019-01-06T14:05:19.214Z,0.73
2019-01-06T14:08:19.180Z,0.90
2019-01-06T14:11:13.057Z,1.30
2019-01-06T14:14:03.860Z,1.20
2019-01-06T14:16:51.901Z,1.00
2019-01-06T14:19:49.462Z,1.03
2019-01-06T14:22:40.576Z,1.10
2019-01-06T14:25:32.608Z,1.00
2019-01-06T14:28:20.404Z,1.13
2019-01-06T14:31:07.653Z,1.20
2019-01-06T14:33:46.954Z,1.23
2019-01-06T14:36:37.699Z,1.33
2019-01-06T14:39:32.189Z,1.83
2019-01-06T14:42:29.445Z,1.10
2019-01-06T14:45:26.429Z,1.40
2019-01-06T14:48:13.840Z,1.40
2019-01-06T14:51:01.980Z,1.70
2019-01-06T14:53:48.998Z,1.53
2019-01-06T14:56:52.683Z,1.43
2019-01-06T14:59:39.493Z,1.50
2019-01-06T15:02:27.840Z,1.80
2019-01-06T15:05:12.861Z,1.57
2019-01-06T15:08:06.161Z,1.67
2019-01-06T15:10:52.574Z,1.70
2019-01-06T15:13:41.957Z,1.80
2019-01-06T15:16:29.571Z,1.80
2019-01-06T15:19:26.521Z,2.10
2019-01-06T15:22:20.437Z,2.20
2019-01-06T15:25:07.210Z,1.37
2019-01-06T15:27:58.319Z,1.97
2019-01-06T15:30:48.049Z,1.70
2019-01-06T15:33:35.056Z,1.90
2019-01-06T15:36:31.967Z,1.50
2019-01-06T15:39:19.385Z,1.87
2019-01-06T15:42:05.891Z,2.13
2019-01-06T15:44:55.198Z,2.77
2019-01-06T15:47:41.660Z,2.50
2019-01-06T15:50:41.991Z,2.40
2019-01-06T15:53:28.493Z,2.53
2019-01-06T15:56:25.132Z,2.53
2019-01-06T15:59:16.245Z,2.50
2019-01-06T16:02:13.806Z,2.37
2019-01-06T16:05:04.918Z,2.30
2019-01-06T16:07:51.421Z,3.10
2019-01-06T16:10:39.329Z,3.30
2019-01-06T16:13:32.619Z,3.23
2019-01-06T16:16:18.614Z,3.43
2019-01-06T16:19:06.343Z,3.07
2019-01-06T16:21:55.022Z,4.07
2019-01-06T16:24:44.664Z,3.27
2019-01-06T16:27:44.593Z,3.63
2019-01-06T16:30:36.017Z,3.97
2019-01-06T16:33:23.800Z,3.27
2019-01-06T16:36:11.168Z,4.20
2019-01-06T16:39:05.355Z,4.33
2019-01-06T16:41:59.232Z,6.20
2019-01-06T16:44:46.039Z,5.37
2019-01-06T16:47:33.541Z,4.20
2019-01-06T16:50:19.749Z,4.33
2019-01-06T16:53:11.390Z,4.47
2019-01-06T16:55:57.639Z,4.20
2019-01-06T16:58:45.080Z,4.50
2019-01-06T17:01:31.017Z,4.67
2019-01-06T17:04:36.752Z,4.20
2019-01-06T17:07:23.229Z,3.57
2019-01-06T17:10:09.119Z,4.80
2019-01-06T17:13:08.450Z,4.23
2019-01-06T17:16:13.913Z,4.17
2019-01-06T17:19:19.455Z,4.17
2019-01-06T17:22:05.648Z,4.30
2019-01-06T17:24:59.118Z,4.73
2019-01-06T17:27:45.182Z,5.20
2019-01-06T17:30:31.149Z,5.30
2019-01-06T17:33:32.291Z,4.80
2019-01-06T17:36:38.356Z,5.53
2019-01-06T17:39:36.468Z,5.80
2019-01-06T17:42:26.585Z,5.07
2019-01-06T17:45:29.284Z,5.47
2019-01-06T17:48:15.855Z,5.17
2019-01-06T17:51:03.714Z,5.17
2019-01-06T17:54:00.547Z,5.00
2019-01-06T17:56:46.775Z,5.60
2019-01-06T17:59:31.225Z,6.00
2019-01-06T18:02:18.883Z,6.00
2019-01-06T18:05:06.629Z,5.73
2019-01-06T18:07:54.212Z,5.20
2019-01-06T18:10:59.532Z,4.77
2019-01-06T18:13:52.826Z,5.90
2019-01-06T18:16:38.926Z,5.27
2019-01-06T18:19:29.393Z,6.40
2019-01-06T18:22:10.085Z,5.80
2019-01-06T18:25:06.582Z,5.80
2019-01-06T18:27:53.096Z,5.60
2019-01-06T18:30:40.601Z,6.60
2019-01-06T18:33:37.145Z,6.23
2019-01-06T18:36:35.430Z,5.97
2019-01-06T18:39:27.883Z,6.73
2019-01-06T18:42:16.042Z,5.57
2019-01-06T18:45:08.868Z,6.07
2019-01-06T18:47:39.089Z,5.67
2019-01-06T18:50:26.915Z,6.00
2019-01-06T18:53:14.544Z,5.43
2019-01-06T18:56:00.974Z,4.77
2019-01-06T18:58:48.885Z,6.00
2019-01-06T19:01:34.813Z,5.50
2019-01-06T19:04:37.574Z,5.60
2019-01-06T19:07:25.242Z,5.10
2019-01-06T19:10:11.712Z,5.67
2019-01-06T19:13:02.759Z,5.87
2019-01-06T19:15:49.135Z,4.97
2019-01-06T19:18:49.195Z,5.83
2019-01-06T19:21:45.728Z,5.93
2019-01-06T19:24:31.686Z,6.23
2019-01-06T19:27:22.098Z,5.97
2019-01-06T19:30:05.819Z,5.87
2019-01-06T19:32:52.002Z,5.87
2019-01-06T19:35:48.273Z,4.90
2019-01-06T19:38:34.410Z,4.73
2019-01-06T19:41:18.596Z,4.47
2019-01-06T19:44:06.451Z,4.50
2019-01-06T19:46:56.833Z,4.57
2019-01-06T19:49:53.089Z,6.03
2019-01-06T19:52:55.628Z,6.80
2019-01-06T19:55:39.429Z,6.60
2019-01-06T19:58:25.438Z,6.23
2019-01-06T20:01:11.358Z,5.87
2019-01-06T20:04:02.248Z,4.83
2019-01-06T20:06:58.861Z,5.23
2019-01-06T20:09:44.048Z,5.57
2019-01-06T20:12:43.525Z,6.97
2019-01-06T20:15:23.005Z,7.03
2019-01-06T20:18:16.110Z,5.57
2019-01-06T20:21:02.332Z,5.43
2019-01-06T20:24:01.798Z,5.20
2019-01-06T20:26:48.020Z,5.20
2019-01-06T20:29:35.850Z,5.33
2019-01-06T20:32:22.184Z,4.80
2019-01-06T20:35:08.029Z,5.10
2019-01-06T20:37:53.641Z,4.70
2019-01-06T20:40:56.461Z,5.13
2019-01-06T20:43:46.656Z,4.90
2019-01-06T20:46:32.501Z,4.23
2019-01-06T20:49:37.905Z,5.07
2019-01-06T20:52:24.202Z,4.33
2019-01-06T20:55:11.727Z,3.80
2019-01-06T20:57:59.177Z,3.53
2019-01-06T21:00:52.604Z,4.10
2019-01-06T21:03:46.068Z,3.83
2019-01-06T21:06:39.618Z,3.67
2019-01-06T21:09:45.564Z,4.27
2019-01-06T21:12:35.985Z,3.87
2019-01-06T21:15:37.825Z,4.07
2019-01-06T21:18:25.332Z,4.37
2019-01-06T21:21:18.470Z,4.70
2019-01-06T21:24:18.218Z,3.47
2019-01-06T21:27:11.254Z,4.40
2019-01-06T21:30:01.430Z,4.87
2019-01-06T21:32:47.480Z,4.57
2019-01-06T21:35:33.609Z,5.00
2019-01-06T21:38:39.042Z,5.53
2019-01-06T21:41:25.745Z,5.10
2019-01-06T21:44:16.309Z,4.07
2019-01-06T21:47:02.693Z,4.13
2019-01-06T21:49:58.949Z,4.37
2019-01-06T21:52:38.789Z,4.67
2019-01-06T21:55:38.537Z,4.60
2019-01-06T21:58:24.661Z,4.30
2019-01-06T22:01:14.888Z,5.23
2019-01-06T22:04:11.493Z,5.23
2019-01-06T22:07:07.628Z,4.83
2019-01-06T22:10:10.309Z,4.60
2019-01-06T22:13:03.453Z,5.00
2019-01-06T22:15:47.232Z,5.07
2019-01-06T22:18:37.674Z,4.77
2019-01-06T22:21:16.753Z,5.23
2019-01-06T22:24:16.052Z,4.73
2019-01-06T22:27:01.937Z,4.87
2019-01-06T22:29:48.226Z,4.93
2019-01-06T22:32:34.217Z,4.73
2019-01-06T22:35:20.070Z,4.93
2019-01-06T22:38:06.188Z,5.37
2019-01-06T22:41:01.354Z,5.43
2019-01-06T22:44:00.801Z,5.20
2019-01-06T22:46:57.261Z,5.77
2019-01-06T22:49:44.782Z,5.07
2019-01-06T22:52:36.844Z,5.60
2019-01-06T22:55:18.607Z,5.93
2019-01-06T22:58:04.517Z,5.93
2019-01-06T23:00:51.040Z,5.97
2019-01-06T23:03:36.461Z,5.63
2019-01-06T23:06:22.578Z,5.83
2019-01-06T23:09:06.093Z,5.80
2019-01-06T23:11:51.890Z,5.33
2019-01-06T23:14:51.370Z,5.40
2019-01-06T23:17:41.919Z,6.17
2019-01-06T23:20:35.317Z,4.73
2019-01-06T23:23:21.460Z,5.30
2019-01-06T23:26:08.921Z,5.13
2019-01-06T23:29:08.569Z,4.73
2019-01-06T23:32:01.945Z,5.30
2019-01-06T23:35:04.725Z,4.80
2019-01-06T23:37:53.162Z,4.53
2019-01-06T23:40:58.929Z,4.70
2019-01-06T23:43:49.137Z,5.07
2019-01-06T23:46:39.549Z,4.80
2019-01-06T23:49:27.432Z,4.70
2019-01-06T23:52:15.417Z,5.60
2019-01-06T23:55:01.291Z,4.90
2019-01-06T23:57:51.696Z,5.73
